createdAt,value
2022-10-28T00:01:43.218Z,36.58
2022-10-28T00:03:55.010Z,30.67
2022-10-28T00:06:03.461Z,43.17
2022-10-28T00:08:05.114Z,39.67
2022-10-28T00:10:06.934Z,42.40
2022-10-28T00:12:08.406Z,35.88
2022-10-28T00:14:10.164Z,37.55
2022-10-28T00:16:11.714Z,30.73
2022-10-28T00:18:13.119Z,30.88
2022-10-28T00:20:15.896Z,30.10
2022-10-28T00:22:17.860Z,32.90
2022-10-28T00:24:20.329Z,25.23
2022-10-28T00:26:25.143Z,34.97
2022-10-28T00:28:28.851Z,42.65
2022-10-28T00:32:39.015Z,24.88
2022-10-28T00:34:40.937Z,21.10
2022-10-28T00:36:45.632Z,26.67
2022-10-28T00:38:48.799Z,35.50
2022-10-28T00:40:50.651Z,30.73
2022-10-28T00:42:54.315Z,30.80
2022-10-28T00:45:00.465Z,34.13
2022-10-28T00:47:01.863Z,21.67
2022-10-28T00:49:07.740Z,39.58
2022-10-28T00:51:09.812Z,26.65
2022-10-28T00:53:15.353Z,30.00
2022-10-28T00:55:17.704Z,25.27
2022-10-28T00:57:21.216Z,27.92
2022-10-28T00:59:25.625Z,35.42
2022-10-28T01:01:27.608Z,26.35
2022-10-28T01:03:30.837Z,23.00
2022-10-28T01:05:34.494Z,37.15
2022-10-28T01:07:37.739Z,24.73
2022-10-28T01:09:39.902Z,29.58
2022-10-28T01:12:01.263Z,32.45
2022-10-28T01:14:12.482Z,30.58
2022-10-28T01:16:32.465Z,27.52
2022-10-28T01:18:41.262Z,22.73
2022-10-28T01:20:56.577Z,22.05
2022-10-28T01:23:09.844Z,25.77
2022-10-28T01:25:12.721Z,27.52
2022-10-28T01:27:31.260Z,23.35
2022-10-28T01:29:48.097Z,29.33
2022-10-28T01:32:08.350Z,18.88
2022-10-28T01:34:21.126Z,25.38
2022-10-28T01:36:31.844Z,24.60
2022-10-28T01:38:41.788Z,16.35
2022-10-28T01:40:53.418Z,27.30
2022-10-28T01:43:08.864Z,27.95
2022-10-28T01:45:19.938Z,19.17
2022-10-28T01:47:35.182Z,17.95
2022-10-28T01:49:57.226Z,20.58
2022-10-28T01:52:01.921Z,24.83
2022-10-28T01:56:07.322Z,20.63
2022-10-28T01:58:10.301Z,19.98
2022-10-28T02:00:12.347Z,34.47
2022-10-28T02:02:15.128Z,22.40
2022-10-28T02:04:16.934Z,26.10
2022-10-28T02:06:23.091Z,24.58
2022-10-28T02:08:39.309Z,35.80
2022-10-28T02:10:42.816Z,24.88
2022-10-28T02:12:44.959Z,26.98
2022-10-28T02:15:04.258Z,36.67
2022-10-28T02:17:17.740Z,27.17
2022-10-28T02:19:37.774Z,13.17
2022-10-28T02:21:57.863Z,21.45
2022-10-28T02:24:05.421Z,22.08
2022-10-28T02:26:21.881Z,15.60
2022-10-28T02:28:39.327Z,15.68
2022-10-28T02:30:51.100Z,18.23
2022-10-28T02:32:55.340Z,17.23
2022-10-28T02:35:01.194Z,16.77
2022-10-28T02:37:06.556Z,11.13
2022-10-28T02:39:08.238Z,11.27
2022-10-28T02:41:15.585Z,9.38
2022-10-28T02:43:17.752Z,11.48
2022-10-28T02:45:21.039Z,8.90
2022-10-28T02:47:26.469Z,14.93
2022-10-28T02:49:29.034Z,14.07
2022-10-28T02:51:33.994Z,16.75
2022-10-28T02:53:54.006Z,20.42
2022-10-28T02:55:57.372Z,33.75
2022-10-28T02:57:58.819Z,32.15
2022-10-28T03:00:01.827Z,27.98
2022-10-28T03:02:05.271Z,25.33
2022-10-28T03:04:06.764Z,22.75
2022-10-28T03:06:08.611Z,23.63
2022-10-28T03:08:09.959Z,22.05
2022-10-28T03:10:11.360Z,23.95
2022-10-28T03:12:12.869Z,25.70
2022-10-28T03:14:15.429Z,23.42
2022-10-28T03:16:16.991Z,25.85
2022-10-28T03:18:18.497Z,21.67
2022-10-28T03:20:20.153Z,36.30
2022-10-28T03:22:21.609Z,33.55
2022-10-28T03:24:23.037Z,25.35
2022-10-28T03:26:24.721Z,19.20
2022-10-28T03:28:26.134Z,22.00
2022-10-28T03:30:27.610Z,36.03
2022-10-28T03:32:31.273Z,24.45
2022-10-28T03:34:32.966Z,24.63
2022-10-28T03:36:34.518Z,33.67
2022-10-28T03:38:35.977Z,18.92
2022-10-28T03:40:39.431Z,29.98
2022-10-28T03:44:45.010Z,27.73
2022-10-28T03:46:47.013Z,26.55
2022-10-28T03:48:50.363Z,25.98
2022-10-28T03:50:52.644Z,25.17
2022-10-28T03:52:54.094Z,28.30
2022-10-28T03:54:57.389Z,27.30
2022-10-28T03:56:59.294Z,26.73
2022-10-28T03:59:00.783Z,23.65
2022-10-28T04:01:04.908Z,23.83
2022-10-28T04:03:06.950Z,29.55
2022-10-28T04:05:08.553Z,26.27
2022-10-28T04:07:12.341Z,24.40
2022-10-28T04:09:14.196Z,24.77
2022-10-28T04:11:15.593Z,26.83
2022-10-28T04:13:19.449Z,22.98
2022-10-28T04:15:21.427Z,26.20
2022-10-28T04:17:24.647Z,21.85
2022-10-28T04:19:28.281Z,33.73
2022-10-28T04:21:30.281Z,26.63
2022-10-28T04:23:32.023Z,26.52
2022-10-28T04:25:36.201Z,22.88
2022-10-28T04:27:39.911Z,22.88
2022-10-28T04:29:41.730Z,24.67
2022-10-28T04:31:47.525Z,24.50
2022-10-28T04:33:52.046Z,15.32
2022-10-28T04:35:53.482Z,29.17
2022-10-28T04:37:57.152Z,23.40
2022-10-28T04:40:00.335Z,20.38
2022-10-28T04:42:02.238Z,17.80
2022-10-28T04:44:06.070Z,28.90
2022-10-28T04:46:07.738Z,17.80
2022-10-28T04:48:11.763Z,23.73
2022-10-28T04:50:13.510Z,12.55
2022-10-28T04:52:15.916Z,36.50
2022-10-28T04:54:17.790Z,24.38
2022-10-28T04:56:19.377Z,19.50
2022-10-28T04:58:20.850Z,21.85
2022-10-28T05:00:22.785Z,21.98
2022-10-28T05:02:24.360Z,28.63
2022-10-28T05:04:25.895Z,24.50
2022-10-28T05:06:27.387Z,29.42
2022-10-28T05:08:28.880Z,25.40
2022-10-28T05:10:31.360Z,26.67
2022-10-28T05:12:32.746Z,29.45
2022-10-28T05:14:34.150Z,28.80
2022-10-28T05:16:35.813Z,23.55
2022-10-28T05:18:37.286Z,30.50
2022-10-28T05:20:38.759Z,36.95
2022-10-28T05:22:45.354Z,27.35
2022-10-28T05:24:46.806Z,20.52
2022-10-28T05:26:48.258Z,26.52
2022-10-28T05:28:50.605Z,26.13
2022-10-28T05:30:52.088Z,23.90
2022-10-28T05:33:01.176Z,36.13
2022-10-28T05:35:02.960Z,20.77
2022-10-28T05:37:04.650Z,32.30
2022-10-28T05:39:06.202Z,35.63
2022-10-28T05:41:07.590Z,26.02
2022-10-28T05:43:09.589Z,29.10
2022-10-28T05:45:11.777Z,29.30
2022-10-28T05:47:13.258Z,30.75
2022-10-28T05:49:20.247Z,33.35
2022-10-28T05:51:21.723Z,29.75
2022-10-28T05:53:23.550Z,39.55
2022-10-28T05:55:27.776Z,34.40
2022-10-28T05:57:29.178Z,28.73
2022-10-28T05:59:30.706Z,34.50
2022-10-28T06:01:32.446Z,28.75
2022-10-28T06:03:34.471Z,37.55
2022-10-28T06:05:37.302Z,42.38
2022-10-28T06:07:39.455Z,25.65
2022-10-28T06:09:40.879Z,34.75
2022-10-28T06:11:40.955Z,43.35
2022-10-28T06:13:42.442Z,39.85
2022-10-28T06:15:48.756Z,51.67
2022-10-28T06:17:50.261Z,38.13
2022-10-28T06:19:51.730Z,32.90
2022-10-28T06:21:53.113Z,53.95
2022-10-28T06:23:54.619Z,40.47
2022-10-28T06:28:01.132Z,54.08
2022-10-28T06:30:02.787Z,37.08
2022-10-28T06:32:04.577Z,50.90
2022-10-28T06:34:07.455Z,48.47
2022-10-28T06:36:10.923Z,41.08
2022-10-28T06:38:15.504Z,56.30
2022-10-28T06:42:21.322Z,47.63
2022-10-28T06:44:24.802Z,45.95
2022-10-28T06:46:26.849Z,49.65
2022-10-28T06:48:31.957Z,49.97
2022-10-28T06:50:36.424Z,55.17
2022-10-28T06:52:38.456Z,52.38
2022-10-28T06:54:39.928Z,46.67
2022-10-28T06:56:46.443Z,47.63
2022-10-28T06:58:52.155Z,46.90
2022-10-28T07:00:55.680Z,48.40
2022-10-28T07:02:58.105Z,45.95
2022-10-28T07:05:01.862Z,39.47
2022-10-28T07:09:05.380Z,38.00
2022-10-28T07:11:06.860Z,27.55
2022-10-28T07:13:08.282Z,33.47
2022-10-28T07:15:09.982Z,37.70
2022-10-28T07:17:11.401Z,36.58
2022-10-28T07:19:17.884Z,24.40
2022-10-28T07:21:25.397Z,33.65
2022-10-28T07:23:29.574Z,25.77
2022-10-28T07:25:31.835Z,31.13
2022-10-28T07:27:33.297Z,29.13
2022-10-28T07:29:36.691Z,25.63
2022-10-28T07:31:38.040Z,24.58
2022-10-28T07:33:39.916Z,23.88
2022-10-28T07:35:44.074Z,22.33
2022-10-28T07:37:48.043Z,21.80
2022-10-28T07:39:51.977Z,15.38
2022-10-28T07:41:53.942Z,18.50
2022-10-28T07:43:57.616Z,20.80
2022-10-28T07:48:02.766Z,22.30
2022-10-28T07:50:04.409Z,23.67
2022-10-28T07:52:05.820Z,28.05
2022-10-28T07:54:07.196Z,15.82
2022-10-28T07:56:14.046Z,14.98
2022-10-28T07:58:15.711Z,15.40
2022-10-28T08:00:17.199Z,17.75
2022-10-28T08:02:19.865Z,18.27
2022-10-28T08:04:21.297Z,19.77
2022-10-28T08:06:23.125Z,11.77
2022-10-28T08:08:24.554Z,18.90
2022-10-28T08:10:26.829Z,14.20
2022-10-28T08:12:28.819Z,14.07
2022-10-28T08:14:30.251Z,14.98
2022-10-28T08:16:31.790Z,18.20
2022-10-28T08:18:33.616Z,15.20
2022-10-28T08:20:35.003Z,18.20
2022-10-28T08:22:36.484Z,14.23
2022-10-28T08:24:37.989Z,14.73
2022-10-28T08:26:39.548Z,15.70
2022-10-28T08:28:41.216Z,18.88
2022-10-28T08:30:57.175Z,17.67
2022-10-28T08:33:04.515Z,13.00
2022-10-28T08:35:06.413Z,9.10
2022-10-28T08:37:08.075Z,18.60
2022-10-28T08:39:09.761Z,18.20
2022-10-28T08:41:23.017Z,22.45
2022-10-28T08:43:46.215Z,12.95
2022-10-28T08:45:55.433Z,14.00
2022-10-28T08:48:03.307Z,20.00
2022-10-28T08:50:16.206Z,17.58
2022-10-28T08:52:36.385Z,13.38
2022-10-28T08:54:47.150Z,14.35
2022-10-28T08:56:49.839Z,14.50
2022-10-28T08:58:54.659Z,20.17
2022-10-28T09:00:57.708Z,13.80
2022-10-28T09:02:59.120Z,16.10
2022-10-28T09:05:33.439Z,20.10
2022-10-28T09:07:36.863Z,15.10
2022-10-28T09:09:38.508Z,19.20
2022-10-28T09:11:54.961Z,24.75
2022-10-28T09:14:14.313Z,24.58
2022-10-28T09:16:18.910Z,25.65
2022-10-28T09:18:26.619Z,22.50
2022-10-28T09:20:30.875Z,22.85
2022-10-28T09:22:38.435Z,18.02
2022-10-28T09:24:40.008Z,19.90
2022-10-28T09:26:47.392Z,15.85
2022-10-28T09:28:54.832Z,16.88
2022-10-28T09:30:56.348Z,15.05
2022-10-28T09:33:06.859Z,17.48
2022-10-28T09:35:19.323Z,16.90
2022-10-28T09:37:30.274Z,15.80
2022-10-28T09:39:42.932Z,19.02
2022-10-28T09:41:46.448Z,18.73
2022-10-28T09:44:13.231Z,15.38
2022-10-28T09:46:20.242Z,21.40
2022-10-28T09:48:27.424Z,17.08
2022-10-28T09:50:30.888Z,17.42
2022-10-28T09:52:40.582Z,13.45
2022-10-28T09:54:46.180Z,11.45
2022-10-28T09:56:49.691Z,13.48
2022-10-28T09:58:52.580Z,24.08
2022-10-28T10:00:55.791Z,14.98
2022-10-28T10:02:59.591Z,22.15
2022-10-28T10:07:05.537Z,19.30
2022-10-28T10:09:10.145Z,16.80
2022-10-28T10:11:19.607Z,21.63
2022-10-28T10:13:29.866Z,10.75
2022-10-28T10:15:39.681Z,11.98
2022-10-28T10:17:45.796Z,17.33
2022-10-28T10:20:01.302Z,15.18
2022-10-28T10:22:02.788Z,13.13
2022-10-28T10:24:20.958Z,17.00
2022-10-28T10:26:23.325Z,15.82
2022-10-28T10:28:26.586Z,13.45
2022-10-28T10:30:34.312Z,14.63
2022-10-28T10:32:36.316Z,20.52
2022-10-28T10:34:37.879Z,15.93
2022-10-28T10:36:48.580Z,14.55
2022-10-28T10:38:54.393Z,9.45
2022-10-28T10:40:56.496Z,17.33
2022-10-28T10:43:14.553Z,19.60
2022-10-28T10:45:16.173Z,13.88
2022-10-28T10:47:19.033Z,13.20
2022-10-28T10:49:20.587Z,15.37
2022-10-28T10:51:23.038Z,12.65
2022-10-28T10:53:31.919Z,16.73
2022-10-28T10:55:36.373Z,19.63
2022-10-28T10:57:37.867Z,13.50
2022-10-28T10:59:39.413Z,17.05
2022-10-28T11:01:41.140Z,15.73
2022-10-28T11:03:55.257Z,12.70
2022-10-28T11:06:18.372Z,17.40
2022-10-28T11:08:31.064Z,13.65
2022-10-28T11:13:05.747Z,7.63
2022-10-28T11:15:16.655Z,9.13
2022-10-28T11:17:25.999Z,11.00
2022-10-28T11:19:32.031Z,7.57
2022-10-28T11:21:36.602Z,8.57
2022-10-28T11:23:44.427Z,8.70
2022-10-28T11:25:48.786Z,7.07
2022-10-28T11:27:55.263Z,4.85
2022-10-28T11:29:59.727Z,3.67
2022-10-28T11:32:07.179Z,7.28
2022-10-28T11:34:14.678Z,7.93
2022-10-28T11:36:32.902Z,9.48
2022-10-28T11:38:34.348Z,7.45
2022-10-28T11:40:54.735Z,7.25
2022-10-28T11:43:15.204Z,5.28
2022-10-28T11:45:29.783Z,7.63
2022-10-28T11:47:49.567Z,5.15
2022-10-28T11:50:09.158Z,8.32
2022-10-28T11:52:19.024Z,5.78
2022-10-28T11:54:23.270Z,7.07
2022-10-28T11:56:32.846Z,6.25
2022-10-28T11:58:43.436Z,6.35
2022-10-28T12:01:00.372Z,9.07
2022-10-28T12:03:15.305Z,7.28
2022-10-28T12:05:16.873Z,6.40
2022-10-28T12:07:37.008Z,4.93
2022-10-28T12:09:47.964Z,5.25
2022-10-28T12:11:58.207Z,8.77
2022-10-28T12:14:05.402Z,6.32
2022-10-28T12:16:14.893Z,2.97
2022-10-28T12:18:31.065Z,3.47
2022-10-28T12:20:42.391Z,3.63
2022-10-28T12:22:49.586Z,6.22
2022-10-28T12:24:51.600Z,5.93
2022-10-28T12:26:57.212Z,2.97
2022-10-28T12:29:00.987Z,2.55
2022-10-28T12:33:06.545Z,3.05
2022-10-28T12:35:14.526Z,1.25
2022-10-28T12:37:21.863Z,1.30
2022-10-28T12:39:29.236Z,4.97
2022-10-28T12:41:45.336Z,4.38
2022-10-28T12:43:46.772Z,2.88
2022-10-28T12:45:48.998Z,5.63
2022-10-28T12:47:50.358Z,5.53
2022-10-28T12:50:08.013Z,2.88
2022-10-28T12:52:29.515Z,2.13
2022-10-28T12:54:48.706Z,2.38
2022-10-28T12:57:20.772Z,1.60
2022-10-28T12:59:40.944Z,1.88
2022-10-28T13:01:47.824Z,1.58
2022-10-28T13:03:56.334Z,1.50
2022-10-28T13:06:10.918Z,2.30
2022-10-28T13:08:34.617Z,2.55
2022-10-28T13:10:52.342Z,3.80
2022-10-28T13:13:13.509Z,2.15
2022-10-28T13:15:31.603Z,3.78
2022-10-28T13:18:03.787Z,1.38
2022-10-28T13:20:12.800Z,3.67
2022-10-28T13:22:23.265Z,2.33
2022-10-28T13:24:28.193Z,3.10
2022-10-28T13:26:31.472Z,4.20
2022-10-28T13:28:34.880Z,3.47
2022-10-28T13:30:36.577Z,3.38
2022-10-28T13:32:39.586Z,4.85
2022-10-28T13:34:41.141Z,3.63
2022-10-28T13:36:44.183Z,3.47
2022-10-28T13:38:53.633Z,3.70
2022-10-28T13:41:00.469Z,7.10
2022-10-28T13:43:02.272Z,7.75
2022-10-28T13:45:04.870Z,6.70
2022-10-28T13:47:15.313Z,8.98
2022-10-28T13:49:24.305Z,7.90
2022-10-28T13:51:29.429Z,3.35
2022-10-28T13:53:38.364Z,3.53
2022-10-28T13:55:40.722Z,10.63
2022-10-28T13:57:43.860Z,7.72
2022-10-28T13:59:51.203Z,9.70
2022-10-28T14:02:07.970Z,7.65
2022-10-28T14:04:23.698Z,8.95
2022-10-28T14:06:32.807Z,7.13
2022-10-28T14:08:37.857Z,7.30
2022-10-28T14:10:40.048Z,7.72
2022-10-28T14:12:43.902Z,6.30
2022-10-28T14:16:46.873Z,9.60
2022-10-28T14:19:15.158Z,6.63
2022-10-28T14:21:16.687Z,12.13
2022-10-28T14:23:21.210Z,16.25
2022-10-28T14:25:48.199Z,6.45
2022-10-28T14:27:49.933Z,5.10
2022-10-28T14:29:57.417Z,9.55
2022-10-28T14:32:18.816Z,7.32
2022-10-28T14:34:20.213Z,13.02
2022-10-28T14:36:48.971Z,13.18
2022-10-28T14:38:53.139Z,9.65
2022-10-28T14:41:06.239Z,5.28
2022-10-28T14:43:07.705Z,8.15
2022-10-28T14:45:27.930Z,9.73
2022-10-28T14:47:46.460Z,9.15
2022-10-28T14:49:58.333Z,9.48
2022-10-28T14:52:16.892Z,14.32
2022-10-28T14:54:23.260Z,12.60
2022-10-28T14:56:26.212Z,10.68
2022-10-28T14:58:35.352Z,8.77
2022-10-28T15:00:38.909Z,7.85
2022-10-28T15:02:40.654Z,6.38
2022-10-28T15:04:43.725Z,13.35
2022-10-28T15:06:48.249Z,13.55
2022-10-28T15:08:50.157Z,12.38
2022-10-28T15:10:51.736Z,12.60
2022-10-28T15:12:54.406Z,8.35
2022-10-28T15:14:57.032Z,6.47
2022-10-28T15:17:00.521Z,11.60
2022-10-28T15:19:06.193Z,15.05
2022-10-28T15:21:11.595Z,9.35
2022-10-28T15:23:15.795Z,13.35
2022-10-28T15:25:18.731Z,10.60
2022-10-28T15:27:20.637Z,10.20
2022-10-28T15:29:22.896Z,15.30
2022-10-28T15:31:24.705Z,11.50
2022-10-28T15:33:30.060Z,9.10
2022-10-28T15:35:38.017Z,7.95
2022-10-28T15:37:39.492Z,12.52
2022-10-28T15:39:41.013Z,14.95
2022-10-28T15:41:43.662Z,9.57
2022-10-28T15:43:53.277Z,10.80
2022-10-28T15:45:56.325Z,8.30
2022-10-28T15:47:58.780Z,10.45
2022-10-28T15:50:02.309Z,11.40
2022-10-28T15:52:18.214Z,9.80
2022-10-28T15:54:20.446Z,14.60
2022-10-28T15:56:26.970Z,11.75
2022-10-28T15:58:40.506Z,6.90
2022-10-28T16:00:58.802Z,10.73
2022-10-28T16:03:16.333Z,8.10
2022-10-28T16:05:43.290Z,12.25
2022-10-28T16:07:57.268Z,9.07
2022-10-28T16:10:10.188Z,15.32
2022-10-28T16:12:32.261Z,13.82
2022-10-28T16:14:50.225Z,9.30
2022-10-28T16:17:15.337Z,13.13
2022-10-28T16:19:37.050Z,16.17
2022-10-28T16:21:54.492Z,15.20
2022-10-28T16:24:12.396Z,11.05
2022-10-28T16:26:26.229Z,16.30
2022-10-28T16:28:31.574Z,12.32
2022-10-28T16:30:33.100Z,10.40
2022-10-28T16:32:37.393Z,12.48
2022-10-28T16:34:39.121Z,16.42
2022-10-28T16:36:41.046Z,17.83
2022-10-28T16:38:42.702Z,17.58
2022-10-28T16:40:51.333Z,20.35
2022-10-28T16:42:55.478Z,14.40
2022-10-28T16:44:57.345Z,13.85
2022-10-28T16:46:58.757Z,22.65
2022-10-28T16:49:00.404Z,23.25
2022-10-28T16:51:03.513Z,13.73
2022-10-28T16:53:04.992Z,14.70
2022-10-28T16:55:13.006Z,18.08
2022-10-28T16:57:14.971Z,17.08
2022-10-28T16:59:16.546Z,14.90
2022-10-28T17:01:19.832Z,17.17
2022-10-28T17:03:21.492Z,21.33
2022-10-28T17:05:26.351Z,6.30
2022-10-28T17:07:28.818Z,22.08
2022-10-28T17:09:30.276Z,15.50
2022-10-28T17:13:38.034Z,27.02
2022-10-28T17:15:40.037Z,52.13
2022-10-28T17:17:41.477Z,42.95
2022-10-28T17:19:45.543Z,39.90
2022-10-28T17:23:48.413Z,31.20
2022-10-28T17:25:59.602Z,37.25
2022-10-28T17:28:01.623Z,18.13
2022-10-28T17:30:03.566Z,19.92
2022-10-28T17:32:08.614Z,18.85
2022-10-28T17:34:10.444Z,28.10
2022-10-28T17:36:11.892Z,28.00
2022-10-28T17:38:13.580Z,18.92
2022-10-28T17:40:15.608Z,15.07
2022-10-28T17:42:17.096Z,17.27
2022-10-28T17:44:18.501Z,13.30
2022-10-28T17:46:20.302Z,16.27
2022-10-28T17:48:21.701Z,16.30
2022-10-28T17:50:23.402Z,14.15
2022-10-28T17:52:24.835Z,14.17
2022-10-28T17:54:26.278Z,11.00
2022-10-28T17:56:27.952Z,15.20
2022-10-28T17:58:29.633Z,16.05
2022-10-28T18:00:31.391Z,15.43
2022-10-28T18:02:32.919Z,17.97
2022-10-28T18:04:35.030Z,14.85
2022-10-28T18:06:36.645Z,19.02
2022-10-28T18:08:39.440Z,18.30
2022-10-28T18:10:50.729Z,24.33
2022-10-28T18:12:52.556Z,15.98
2022-10-28T18:14:54.207Z,21.23
2022-10-28T18:16:55.981Z,10.63
2022-10-28T18:18:58.326Z,9.75
2022-10-28T18:21:00.018Z,11.90
2022-10-28T18:23:01.779Z,14.95
2022-10-28T18:25:03.510Z,11.35
2022-10-28T18:27:04.927Z,17.15
2022-10-28T18:29:09.314Z,12.15
2022-10-28T18:33:12.450Z,10.77
2022-10-28T18:35:13.915Z,17.60
2022-10-28T18:37:15.557Z,6.90
2022-10-28T18:39:17.209Z,13.20
2022-10-28T18:41:19.709Z,13.00
2022-10-28T18:43:23.035Z,12.60
2022-10-28T18:45:24.470Z,8.65
2022-10-28T18:47:26.069Z,11.98
2022-10-28T18:49:27.507Z,9.15
2022-10-28T18:51:28.948Z,7.47
2022-10-28T18:53:30.597Z,13.60
